sensor_id;sensor_type;location;lat;lon;timestamp;temperature;humidity
24614;DHT22;12760;46.296;25.290;2023-04-24T00:00:56;12.20;99.90
24614;DHT22;12760;46.296;25.290;2023-04-24T00:03:25;12.10;99.90
24614;DHT22;12760;46.296;25.290;2023-04-24T00:05:56;12.10;99.90
24614;DHT22;12760;46.296;25.290;2023-04-24T00:08:21;12.20;99.90
24614;DHT22;12760;46.296;25.290;2023-04-24T00:10:49;12.20;99.90
24614;DHT22;12760;46.296;25.290;2023-04-24T00:13:15;12.30;99.90
24614;DHT22;12760;46.296;25.290;2023-04-24T00:15:40;12.30;99.90
24614;DHT22;12760;46.296;25.290;2023-04-24T00:18:06;12.40;99.90
24614;DHT22;12760;46.296;25.290;2023-04-24T00:20:32;12.30;99.90
24614;DHT22;12760;46.296;25.290;2023-04-24T00:23:01;12.30;99.90
24614;DHT22;12760;46.296;25.290;2023-04-24T00:25:27;12.40;99.90
24614;DHT22;12760;46.296;25.290;2023-04-24T00:27:52;12.30;99.90
24614;DHT22;12760;46.296;25.290;2023-04-24T00:30:18;12.30;99.90
24614;DHT22;12760;46.296;25.290;2023-04-24T00:32:44;12.30;99.90
24614;DHT22;12760;46.296;25.290;2023-04-24T00:35:09;12.40;99.90
24614;DHT22;12760;46.296;25.290;2023-04-24T00:37:35;12.40;99.90
24614;DHT22;12760;46.296;25.290;2023-04-24T00:40:02;12.40;99.90
24614;DHT22;12760;46.296;25.290;2023-04-24T00:42:28;12.40;99.90
24614;DHT22;12760;46.296;25.290;2023-04-24T00:44:54;12.30;99.90
24614;DHT22;12760;46.296;25.290;2023-04-24T00:47:20;12.30;99.90
24614;DHT22;12760;46.296;25.290;2023-04-24T00:49:47;12.30;99.90
24614;DHT22;12760;46.296;25.290;2023-04-24T00:52:13;12.40;99.90
24614;DHT22;12760;46.296;25.290;2023-04-24T00:54:44;12.40;99.90
24614;DHT22;12760;46.296;25.290;2023-04-24T00:57:10;12.40;99.90
24614;DHT22;12760;46.296;25.290;2023-04-24T00:59:37;12.20;99.90
24614;DHT22;12760;46.296;25.290;2023-04-24T01:02:04;12.20;99.90
24614;DHT22;12760;46.296;25.290;2023-04-24T01:04:31;12.20;99.90
24614;DHT22;12760;46.296;25.290;2023-04-24T01:06:57;12.10;99.90
24614;DHT22;12760;46.296;25.290;2023-04-24T01:09:23;12.10;99.90
24614;DHT22;12760;46.296;25.290;2023-04-24T01:11:50;12.10;99.90
24614;DHT22;12760;46.296;25.290;2023-04-24T01:14:15;12.10;99.90
24614;DHT22;12760;46.296;25.290;2023-04-24T01:16:41;12.00;99.90
24614;DHT22;12760;46.296;25.290;2023-04-24T01:19:07;12.10;99.90
24614;DHT22;12760;46.296;25.290;2023-04-24T01:21:36;12.10;99.90
24614;DHT22;12760;46.296;25.290;2023-04-24T01:24:04;12.00;99.90
24614;DHT22;12760;46.296;25.290;2023-04-24T01:26:30;11.90;99.90
24614;DHT22;12760;46.296;25.290;2023-04-24T01:28:56;11.80;99.90
24614;DHT22;12760;46.296;25.290;2023-04-24T01:31:22;11.70;99.90
24614;DHT22;12760;46.296;25.290;2023-04-24T01:33:49;11.60;99.90
24614;DHT22;12760;46.296;25.290;2023-04-24T01:36:16;11.40;99.90
24614;DHT22;12760;46.296;25.290;2023-04-24T01:38:42;11.40;99.90
24614;DHT22;12760;46.296;25.290;2023-04-24T01:41:08;11.40;99.90
24614;DHT22;12760;46.296;25.290;2023-04-24T01:43:33;11.40;99.90
24614;DHT22;12760;46.296;25.290;2023-04-24T01:45:59;11.40;99.90
24614;DHT22;12760;46.296;25.290;2023-04-24T01:48:25;11.30;99.90
24614;DHT22;12760;46.296;25.290;2023-04-24T01:50:51;11.30;99.90
24614;DHT22;12760;46.296;25.290;2023-04-24T01:53:16;11.20;99.90
24614;DHT22;12760;46.296;25.290;2023-04-24T01:55:42;11.20;99.90
24614;DHT22;12760;46.296;25.290;2023-04-24T01:58:08;11.20;99.90
24614;DHT22;12760;46.296;25.290;2023-04-24T02:00:34;11.20;99.90
24614;DHT22;12760;46.296;25.290;2023-04-24T02:03:00;11.10;99.90
24614;DHT22;12760;46.296;25.290;2023-04-24T02:05:27;11.00;99.90
24614;DHT22;12760;46.296;25.290;2023-04-24T02:07:53;11.00;99.90
24614;DHT22;12760;46.296;25.290;2023-04-24T02:10:19;11.00;99.90
24614;DHT22;12760;46.296;25.290;2023-04-24T02:12:44;10.90;99.90
24614;DHT22;12760;46.296;25.290;2023-04-24T02:15:11;10.90;99.90
24614;DHT22;12760;46.296;25.290;2023-04-24T02:17:37;10.90;99.90
24614;DHT22;12760;46.296;25.290;2023-04-24T02:20:03;10.90;99.90
24614;DHT22;12760;46.296;25.290;2023-04-24T02:22:30;10.80;99.90
24614;DHT22;12760;46.296;25.290;2023-04-24T02:24:56;10.80;99.90
24614;DHT22;12760;46.296;25.290;2023-04-24T02:27:21;10.80;99.90
24614;DHT22;12760;46.296;25.290;2023-04-24T02:29:47;10.70;99.90
24614;DHT22;12760;46.296;25.290;2023-04-24T02:32:13;10.70;99.90
24614;DHT22;12760;46.296;25.290;2023-04-24T02:34:40;10.70;99.90
24614;DHT22;12760;46.296;25.290;2023-04-24T02:37:06;10.70;99.90
24614;DHT22;12760;46.296;25.290;2023-04-24T02:39:32;10.80;99.90
24614;DHT22;12760;46.296;25.290;2023-04-24T02:41:57;10.70;99.90
24614;DHT22;12760;46.296;25.290;2023-04-24T02:44:23;10.70;99.90
24614;DHT22;12760;46.296;25.290;2023-04-24T02:46:49;10.80;99.90
24614;DHT22;12760;46.296;25.290;2023-04-24T02:49:15;10.80;99.90
24614;DHT22;12760;46.296;25.290;2023-04-24T02:51:40;10.80;99.90
24614;DHT22;12760;46.296;25.290;2023-04-24T02:54:08;10.80;99.90
24614;DHT22;12760;46.296;25.290;2023-04-24T02:56:35;10.80;99.90
24614;DHT22;12760;46.296;25.290;2023-04-24T02:59:01;10.80;99.90
24614;DHT22;12760;46.296;25.290;2023-04-24T03:01:26;10.70;99.90
24614;DHT22;12760;46.296;25.290;2023-04-24T03:03:52;10.70;99.90
24614;DHT22;12760;46.296;25.290;2023-04-24T03:06:18;10.70;99.90
24614;DHT22;12760;46.296;25.290;2023-04-24T03:08:43;10.60;99.90
24614;DHT22;12760;46.296;25.290;2023-04-24T03:11:09;10.60;99.90
24614;DHT22;12760;46.296;25.290;2023-04-24T03:13:35;10.60;99.90
24614;DHT22;12760;46.296;25.290;2023-04-24T03:16:01;10.50;99.90
24614;DHT22;12760;46.296;25.290;2023-04-24T03:18:26;10.30;99.90
24614;DHT22;12760;46.296;25.290;2023-04-24T03:20:52;10.30;99.90
24614;DHT22;12760;46.296;25.290;2023-04-24T03:23:18;10.40;99.90
24614;DHT22;12760;46.296;25.290;2023-04-24T03:25:43;10.50;99.90
24614;DHT22;12760;46.296;25.290;2023-04-24T03:28:09;10.50;99.90
24614;DHT22;12760;46.296;25.290;2023-04-24T03:30:35;10.60;99.90
24614;DHT22;12760;46.296;25.290;2023-04-24T03:33:00;10.50;99.90
24614;DHT22;12760;46.296;25.290;2023-04-24T03:35:26;10.50;99.90
24614;DHT22;12760;46.296;25.290;2023-04-24T03:37:52;10.60;99.90
24614;DHT22;12760;46.296;25.290;2023-04-24T03:40:18;10.60;99.90
24614;DHT22;12760;46.296;25.290;2023-04-24T03:42:43;10.50;99.90
24614;DHT22;12760;46.296;25.290;2023-04-24T03:45:09;10.50;99.90
24614;DHT22;12760;46.296;25.290;2023-04-24T03:47:35;10.60;99.90
24614;DHT22;12760;46.296;25.290;2023-04-24T03:50:01;10.60;99.90
24614;DHT22;12760;46.296;25.290;2023-04-24T03:52:27;10.60;99.90
24614;DHT22;12760;46.296;25.290;2023-04-24T03:54:53;10.60;99.90
24614;DHT22;12760;46.296;25.290;2023-04-24T03:57:18;10.70;99.90
24614;DHT22;12760;46.296;25.290;2023-04-24T03:59:44;10.60;99.90
24614;DHT22;12760;46.296;25.290;2023-04-24T04:02:10;10.60;99.90
24614;DHT22;12760;46.296;25.290;2023-04-24T04:04:35;10.60;99.90
24614;DHT22;12760;46.296;25.290;2023-04-24T04:07:01;10.60;99.90
24614;DHT22;12760;46.296;25.290;2023-04-24T04:09:28;10.60;99.90
24614;DHT22;12760;46.296;25.290;2023-04-24T04:11:54;10.50;99.90
24614;DHT22;12760;46.296;25.290;2023-04-24T04:14:21;10.40;99.90
24614;DHT22;12760;46.296;25.290;2023-04-24T04:16:47;10.50;99.90
24614;DHT22;12760;46.296;25.290;2023-04-24T04:19:12;10.50;99.90
24614;DHT22;12760;46.296;25.290;2023-04-24T04:21:38;10.40;99.90
24614;DHT22;12760;46.296;25.290;2023-04-24T04:24:04;10.50;99.90
24614;DHT22;12760;46.296;25.290;2023-04-24T04:26:31;10.40;99.90
24614;DHT22;12760;46.296;25.290;2023-04-24T04:28:58;10.50;99.90
24614;DHT22;12760;46.296;25.290;2023-04-24T04:31:24;10.50;99.90
24614;DHT22;12760;46.296;25.290;2023-04-24T04:33:50;10.50;99.90
24614;DHT22;12760;46.296;25.290;2023-04-24T04:36:16;10.60;99.90
24614;DHT22;12760;46.296;25.290;2023-04-24T04:38:44;10.60;99.90
24614;DHT22;12760;46.296;25.290;2023-04-24T04:41:10;10.60;99.90
24614;DHT22;12760;46.296;25.290;2023-04-24T04:43:36;10.60;99.90
24614;DHT22;12760;46.296;25.290;2023-04-24T04:46:03;10.70;99.90
24614;DHT22;12760;46.296;25.290;2023-04-24T04:48:29;10.80;99.90
24614;DHT22;12760;46.296;25.290;2023-04-24T04:50:57;10.70;99.90
24614;DHT22;12760;46.296;25.290;2023-04-24T04:53:23;10.80;99.90
24614;DHT22;12760;46.296;25.290;2023-04-24T04:55:49;10.90;99.90
24614;DHT22;12760;46.296;25.290;2023-04-24T04:58:15;11.00;99.90
24614;DHT22;12760;46.296;25.290;2023-04-24T05:00:41;11.10;99.90
24614;DHT22;12760;46.296;25.290;2023-04-24T05:03:06;11.20;99.90
24614;DHT22;12760;46.296;25.290;2023-04-24T05:05:32;11.10;99.90
24614;DHT22;12760;46.296;25.290;2023-04-24T05:07:58;11.10;99.90
24614;DHT22;12760;46.296;25.290;2023-04-24T05:10:23;11.20;99.90
24614;DHT22;12760;46.296;25.290;2023-04-24T05:12:49;11.30;99.90
24614;DHT22;12760;46.296;25.290;2023-04-24T05:15:15;11.40;99.90
24614;DHT22;12760;46.296;25.290;2023-04-24T05:17:41;11.50;99.90
24614;DHT22;12760;46.296;25.290;2023-04-24T05:20:07;11.50;99.90
24614;DHT22;12760;46.296;25.290;2023-04-24T05:22:33;11.50;99.90
24614;DHT22;12760;46.296;25.290;2023-04-24T05:24:59;11.60;99.90
24614;DHT22;12760;46.296;25.290;2023-04-24T05:27:24;11.70;99.90
24614;DHT22;12760;46.296;25.290;2023-04-24T05:29:50;11.70;99.90
24614;DHT22;12760;46.296;25.290;2023-04-24T05:32:16;11.80;99.90
24614;DHT22;12760;46.296;25.290;2023-04-24T05:34:42;11.80;99.90
24614;DHT22;12760;46.296;25.290;2023-04-24T05:37:08;11.90;99.90
24614;DHT22;12760;46.296;25.290;2023-04-24T05:39:35;11.90;99.90
24614;DHT22;12760;46.296;25.290;2023-04-24T05:42:02;11.90;99.90
24614;DHT22;12760;46.296;25.290;2023-04-24T05:44:29;12.00;99.90
24614;DHT22;12760;46.296;25.290;2023-04-24T05:46:56;12.00;99.90
24614;DHT22;12760;46.296;25.290;2023-04-24T05:49:22;11.90;99.90
24614;DHT22;12760;46.296;25.290;2023-04-24T05:51:48;12.10;99.90
24614;DHT22;12760;46.296;25.290;2023-04-24T05:54:13;12.30;99.90
24614;DHT22;12760;46.296;25.290;2023-04-24T05:56:39;12.40;99.90
24614;DHT22;12760;46.296;25.290;2023-04-24T05:59:05;12.60;99.90
24614;DHT22;12760;46.296;25.290;2023-04-24T06:01:31;12.80;99.90
24614;DHT22;12760;46.296;25.290;2023-04-24T06:03:57;13.10;99.90
24614;DHT22;12760;46.296;25.290;2023-04-24T06:06:23;13.30;99.90
24614;DHT22;12760;46.296;25.290;2023-04-24T06:08:49;13.50;99.90
24614;DHT22;12760;46.296;25.290;2023-04-24T06:11:15;13.70;99.90
24614;DHT22;12760;46.296;25.290;2023-04-24T06:13:41;13.80;99.30
24614;DHT22;12760;46.296;25.290;2023-04-24T06:16:07;14.00;99.70
24614;DHT22;12760;46.296;25.290;2023-04-24T06:18:33;14.20;99.20
24614;DHT22;12760;46.296;25.290;2023-04-24T06:20:59;14.40;99.00
24614;DHT22;12760;46.296;25.290;2023-04-24T06:23:24;14.60;98.80
24614;DHT22;12760;46.296;25.290;2023-04-24T06:25:51;14.80;98.50
24614;DHT22;12760;46.296;25.290;2023-04-24T06:28:16;15.00;97.60
24614;DHT22;12760;46.296;25.290;2023-04-24T06:30:42;15.10;97.50
24614;DHT22;12760;46.296;25.290;2023-04-24T06:33:08;15.30;97.90
24614;DHT22;12760;46.296;25.290;2023-04-24T06:35:35;15.40;97.40
24614;DHT22;12760;46.296;25.290;2023-04-24T06:38:01;15.50;97.10
24614;DHT22;12760;46.296;25.290;2023-04-24T06:40:27;15.70;96.40
24614;DHT22;12760;46.296;25.290;2023-04-24T06:42:52;15.90;96.00
24614;DHT22;12760;46.296;25.290;2023-04-24T06:45:18;16.00;96.30
24614;DHT22;12760;46.296;25.290;2023-04-24T06:47:44;16.20;95.90
24614;DHT22;12760;46.296;25.290;2023-04-24T06:50:10;16.40;95.90
24614;DHT22;12760;46.296;25.290;2023-04-24T06:52:36;16.50;95.10
24614;DHT22;12760;46.296;25.290;2023-04-24T06:55:03;16.60;95.30
24614;DHT22;12760;46.296;25.290;2023-04-24T06:57:29;16.70;94.70
24614;DHT22;12760;46.296;25.290;2023-04-24T06:59:55;16.90;95.10
24614;DHT22;12760;46.296;25.290;2023-04-24T07:02:21;17.10;94.90
24614;DHT22;12760;46.296;25.290;2023-04-24T07:04:47;17.30;95.10
24614;DHT22;12760;46.296;25.290;2023-04-24T07:07:13;17.50;94.50
24614;DHT22;12760;46.296;25.290;2023-04-24T07:09:42;17.50;94.20
24614;DHT22;12760;46.296;25.290;2023-04-24T07:12:08;17.60;93.90
24614;DHT22;12760;46.296;25.290;2023-04-24T07:14:36;17.80;93.50
24614;DHT22;12760;46.296;25.290;2023-04-24T07:17:06;18.10;93.40
24614;DHT22;12760;46.296;25.290;2023-04-24T07:19:33;18.20;93.30
24614;DHT22;12760;46.296;25.290;2023-04-24T07:22:00;18.20;92.70
24614;DHT22;12760;46.296;25.290;2023-04-24T07:24:26;18.10;92.90
24614;DHT22;12760;46.296;25.290;2023-04-24T07:26:53;18.30;92.70
24614;DHT22;12760;46.296;25.290;2023-04-24T07:29:19;18.60;92.50
24614;DHT22;12760;46.296;25.290;2023-04-24T07:31:45;18.70;92.80
24614;DHT22;12760;46.296;25.290;2023-04-24T07:34:11;18.70;91.50
24614;DHT22;12760;46.296;25.290;2023-04-24T07:36:36;18.90;91.70
24614;DHT22;12760;46.296;25.290;2023-04-24T07:39:04;19.10;92.30
24614;DHT22;12760;46.296;25.290;2023-04-24T07:41:30;19.30;91.30
24614;DHT22;12760;46.296;25.290;2023-04-24T07:43:56;19.40;90.60
24614;DHT22;12760;46.296;25.290;2023-04-24T07:46:21;19.50;90.80
24614;DHT22;12760;46.296;25.290;2023-04-24T07:48:48;19.70;90.60
24614;DHT22;12760;46.296;25.290;2023-04-24T07:51:15;19.90;90.50
24614;DHT22;12760;46.296;25.290;2023-04-24T07:53:41;20.00;89.80
24614;DHT22;12760;46.296;25.290;2023-04-24T07:56:07;19.80;88.40
24614;DHT22;12760;46.296;25.290;2023-04-24T07:58:33;19.80;86.80
24614;DHT22;12760;46.296;25.290;2023-04-24T08:00:59;19.80;86.60
24614;DHT22;12760;46.296;25.290;2023-04-24T08:03:25;20.00;87.90
24614;DHT22;12760;46.296;25.290;2023-04-24T08:05:50;20.10;86.40
24614;DHT22;12760;46.296;25.290;2023-04-24T08:08:16;20.20;86.80
24614;DHT22;12760;46.296;25.290;2023-04-24T08:10:42;20.30;86.00
24614;DHT22;12760;46.296;25.290;2023-04-24T08:13:08;20.50;87.30
24614;DHT22;12760;46.296;25.290;2023-04-24T08:15:34;20.50;85.90
24614;DHT22;12760;46.296;25.290;2023-04-24T08:18:00;20.50;87.20
24614;DHT22;12760;46.296;25.290;2023-04-24T08:20:26;20.50;88.20
24614;DHT22;12760;46.296;25.290;2023-04-24T08:22:52;20.60;86.40
24614;DHT22;12760;46.296;25.290;2023-04-24T08:25:17;20.70;86.30
24614;DHT22;12760;46.296;25.290;2023-04-24T08:27:44;20.60;85.40
24614;DHT22;12760;46.296;25.290;2023-04-24T08:30:10;20.70;84.50
24614;DHT22;12760;46.296;25.290;2023-04-24T08:32:36;20.80;83.20
24614;DHT22;12760;46.296;25.290;2023-04-24T08:35:03;20.80;82.30
24614;DHT22;12760;46.296;25.290;2023-04-24T08:37:29;20.90;83.20
24614;DHT22;12760;46.296;25.290;2023-04-24T08:39:54;21.00;83.50
24614;DHT22;12760;46.296;25.290;2023-04-24T08:42:21;21.00;84.20
24614;DHT22;12760;46.296;25.290;2023-04-24T08:44:48;21.00;84.00
24614;DHT22;12760;46.296;25.290;2023-04-24T08:47:15;20.80;83.50
24614;DHT22;12760;46.296;25.290;2023-04-24T08:49:42;20.80;83.60
24614;DHT22;12760;46.296;25.290;2023-04-24T08:52:09;20.80;84.60
24614;DHT22;12760;46.296;25.290;2023-04-24T08:54:35;21.10;83.40
24614;DHT22;12760;46.296;25.290;2023-04-24T08:57:02;21.20;83.10
24614;DHT22;12760;46.296;25.290;2023-04-24T08:59:30;21.30;83.20
24614;DHT22;12760;46.296;25.290;2023-04-24T09:01:56;21.40;83.80
24614;DHT22;12760;46.296;25.290;2023-04-24T09:04:23;21.50;83.20
24614;DHT22;12760;46.296;25.290;2023-04-24T09:06:56;21.40;83.00
24614;DHT22;12760;46.296;25.290;2023-04-24T09:09:23;21.60;83.30
24614;DHT22;12760;46.296;25.290;2023-04-24T09:11:50;21.80;82.90
24614;DHT22;12760;46.296;25.290;2023-04-24T09:14:19;21.90;82.40
24614;DHT22;12760;46.296;25.290;2023-04-24T09:16:46;22.00;81.30
24614;DHT22;12760;46.296;25.290;2023-04-24T09:19:12;22.00;81.60
24614;DHT22;12760;46.296;25.290;2023-04-24T09:21:38;22.20;82.60
24614;DHT22;12760;46.296;25.290;2023-04-24T09:24:06;22.20;80.60
24614;DHT22;12760;46.296;25.290;2023-04-24T09:26:35;21.80;81.30
24614;DHT22;12760;46.296;25.290;2023-04-24T09:29:02;22.00;82.20
24614;DHT22;12760;46.296;25.290;2023-04-24T09:31:29;22.00;81.60
24614;DHT22;12760;46.296;25.290;2023-04-24T09:34:03;22.00;82.90
24614;DHT22;12760;46.296;25.290;2023-04-24T09:36:42;21.50;81.70
24614;DHT22;12760;46.296;25.290;2023-04-24T09:39:10;21.50;82.90
24614;DHT22;12760;46.296;25.290;2023-04-24T09:41:51;21.60;84.40
24614;DHT22;12760;46.296;25.290;2023-04-24T09:44:19;22.10;83.60
24614;DHT22;12760;46.296;25.290;2023-04-24T09:46:55;22.20;80.80
24614;DHT22;12760;46.296;25.290;2023-04-24T09:49:29;22.20;81.50
24614;DHT22;12760;46.296;25.290;2023-04-24T09:52:09;22.30;81.00
24614;DHT22;12760;46.296;25.290;2023-04-24T09:54:35;22.30;80.40
24614;DHT22;12760;46.296;25.290;2023-04-24T09:57:02;22.30;80.00
24614;DHT22;12760;46.296;25.290;2023-04-24T09:59:28;22.10;79.60
24614;DHT22;12760;46.296;25.290;2023-04-24T10:01:55;22.30;81.50
24614;DHT22;12760;46.296;25.290;2023-04-24T10:04:28;22.50;78.70
24614;DHT22;12760;46.296;25.290;2023-04-24T10:06:56;22.50;80.40
24614;DHT22;12760;46.296;25.290;2023-04-24T10:09:23;22.50;77.50
24614;DHT22;12760;46.296;25.290;2023-04-24T10:11:51;22.50;77.40
24614;DHT22;12760;46.296;25.290;2023-04-24T10:14:25;22.50;78.80
24614;DHT22;12760;46.296;25.290;2023-04-24T10:16:55;22.50;79.00
24614;DHT22;12760;46.296;25.290;2023-04-24T10:19:25;22.30;77.40
24614;DHT22;12760;46.296;25.290;2023-04-24T10:21:51;22.20;79.40
24614;DHT22;12760;46.296;25.290;2023-04-24T10:24:18;21.80;78.80
24614;DHT22;12760;46.296;25.290;2023-04-24T10:26:46;21.90;78.80
24614;DHT22;12760;46.296;25.290;2023-04-24T10:29:15;22.10;78.80
24614;DHT22;12760;46.296;25.290;2023-04-24T10:31:41;22.00;78.30
24614;DHT22;12760;46.296;25.290;2023-04-24T10:34:09;21.80;78.60
24614;DHT22;12760;46.296;25.290;2023-04-24T10:36:36;21.90;80.10
24614;DHT22;12760;46.296;25.290;2023-04-24T10:39:08;22.20;80.00
24614;DHT22;12760;46.296;25.290;2023-04-24T10:41:37;22.50;78.80
24614;DHT22;12760;46.296;25.290;2023-04-24T10:44:11;22.60;78.20
24614;DHT22;12760;46.296;25.290;2023-04-24T10:46:39;22.60;76.10
24614;DHT22;12760;46.296;25.290;2023-04-24T10:49:06;22.60;77.60
24614;DHT22;12760;46.296;25.290;2023-04-24T10:51:51;22.60;76.90
24614;DHT22;12760;46.296;25.290;2023-04-24T10:56:48;22.80;77.00
24614;DHT22;12760;46.296;25.290;2023-04-24T10:59:27;22.80;75.40
24614;DHT22;12760;46.296;25.290;2023-04-24T11:02:00;22.60;75.90
24614;DHT22;12760;46.296;25.290;2023-04-24T11:04:30;22.60;75.80
24614;DHT22;12760;46.296;25.290;2023-04-24T11:06:57;22.70;77.10
24614;DHT22;12760;46.296;25.290;2023-04-24T11:09:32;22.60;73.40
24614;DHT22;12760;46.296;25.290;2023-04-24T11:12:06;22.80;76.40
24614;DHT22;12760;46.296;25.290;2023-04-24T11:17:35;22.90;77.40
24614;DHT22;12760;46.296;25.290;2023-04-24T11:20:04;22.90;77.10
24614;DHT22;12760;46.296;25.290;2023-04-24T11:22:34;22.80;75.50
24614;DHT22;12760;46.296;25.290;2023-04-24T11:25:04;22.80;72.80
24614;DHT22;12760;46.296;25.290;2023-04-24T11:27:31;22.80;73.50
24614;DHT22;12760;46.296;25.290;2023-04-24T11:35:17;22.30;67.50
24614;DHT22;12760;46.296;25.290;2023-04-24T11:37:45;22.50;69.40
24614;DHT22;12760;46.296;25.290;2023-04-24T11:40:13;22.60;68.70
24614;DHT22;12760;46.296;25.290;2023-04-24T11:42:46;22.80;71.00
24614;DHT22;12760;46.296;25.290;2023-04-24T11:45:21;22.60;72.20
24614;DHT22;12760;46.296;25.290;2023-04-24T11:47:47;22.60;72.50
24614;DHT22;12760;46.296;25.290;2023-04-24T11:50:22;22.50;72.70
24614;DHT22;12760;46.296;25.290;2023-04-24T11:52:49;22.50;74.80
24614;DHT22;12760;46.296;25.290;2023-04-24T11:57:59;22.90;74.40
24614;DHT22;12760;46.296;25.290;2023-04-24T12:00:28;23.10;75.00
24614;DHT22;12760;46.296;25.290;2023-04-24T12:03:12;23.20;73.50
24614;DHT22;12760;46.296;25.290;2023-04-24T12:05:38;23.30;73.90
24614;DHT22;12760;46.296;25.290;2023-04-24T12:08:04;23.30;73.10
24614;DHT22;12760;46.296;25.290;2023-04-24T12:10:31;22.90;72.40
24614;DHT22;12760;46.296;25.290;2023-04-24T12:12:58;22.60;72.90
24614;DHT22;12760;46.296;25.290;2023-04-24T12:15:25;22.50;74.70
24614;DHT22;12760;46.296;25.290;2023-04-24T12:17:52;22.80;75.40
24614;DHT22;12760;46.296;25.290;2023-04-24T12:20:27;22.90;73.20
24614;DHT22;12760;46.296;25.290;2023-04-24T12:22:55;23.00;73.80
24614;DHT22;12760;46.296;25.290;2023-04-24T12:25:27;23.00;73.00
24614;DHT22;12760;46.296;25.290;2023-04-24T12:28:10;22.90;72.20
24614;DHT22;12760;46.296;25.290;2023-04-24T12:30:41;22.70;72.30
24614;DHT22;12760;46.296;25.290;2023-04-24T12:33:09;22.50;73.50
24614;DHT22;12760;46.296;25.290;2023-04-24T12:35:35;22.40;74.90
24614;DHT22;12760;46.296;25.290;2023-04-24T12:38:09;22.60;74.60
24614;DHT22;12760;46.296;25.290;2023-04-24T12:40:35;22.90;75.10
24614;DHT22;12760;46.296;25.290;2023-04-24T12:43:01;22.60;72.80
24614;DHT22;12760;46.296;25.290;2023-04-24T12:45:27;22.60;73.90
24614;DHT22;12760;46.296;25.290;2023-04-24T12:47:53;22.60;73.70
24614;DHT22;12760;46.296;25.290;2023-04-24T12:50:19;22.80;74.90
24614;DHT22;12760;46.296;25.290;2023-04-24T12:52:45;22.80;74.50
24614;DHT22;12760;46.296;25.290;2023-04-24T12:55:11;22.60;74.10
24614;DHT22;12760;46.296;25.290;2023-04-24T12:57:39;22.70;75.10
24614;DHT22;12760;46.296;25.290;2023-04-24T13:00:06;22.80;73.70
24614;DHT22;12760;46.296;25.290;2023-04-24T13:02:33;22.60;72.00
24614;DHT22;12760;46.296;25.290;2023-04-24T13:04:59;22.60;73.20
24614;DHT22;12760;46.296;25.290;2023-04-24T13:07:26;22.60;74.00
24614;DHT22;12760;46.296;25.290;2023-04-24T13:09:52;22.60;74.00
24614;DHT22;12760;46.296;25.290;2023-04-24T13:12:19;22.70;73.30
24614;DHT22;12760;46.296;25.290;2023-04-24T13:14:45;22.50;72.70
24614;DHT22;12760;46.296;25.290;2023-04-24T13:17:12;22.40;73.90
24614;DHT22;12760;46.296;25.290;2023-04-24T13:19:42;22.40;74.20
24614;DHT22;12760;46.296;25.290;2023-04-24T13:22:12;22.40;75.30
24614;DHT22;12760;46.296;25.290;2023-04-24T13:24:38;22.40;76.20
24614;DHT22;12760;46.296;25.290;2023-04-24T13:27:06;22.30;74.70
24614;DHT22;12760;46.296;25.290;2023-04-24T13:29:32;22.20;75.20
24614;DHT22;12760;46.296;25.290;2023-04-24T13:31:58;22.20;75.10
24614;DHT22;12760;46.296;25.290;2023-04-24T13:34:25;22.10;74.80
24614;DHT22;12760;46.296;25.290;2023-04-24T13:36:55;22.20;76.30
24614;DHT22;12760;46.296;25.290;2023-04-24T13:39:21;22.20;74.50
24614;DHT22;12760;46.296;25.290;2023-04-24T13:41:47;22.20;74.60
24614;DHT22;12760;46.296;25.290;2023-04-24T13:44:17;22.40;75.10
24614;DHT22;12760;46.296;25.290;2023-04-24T13:46:44;22.20;73.80
24614;DHT22;12760;46.296;25.290;2023-04-24T13:49:11;22.00;73.00
24614;DHT22;12760;46.296;25.290;2023-04-24T13:51:38;21.80;73.10
24614;DHT22;12760;46.296;25.290;2023-04-24T13:54:03;21.90;75.20
24614;DHT22;12760;46.296;25.290;2023-04-24T13:56:29;22.10;75.90
24614;DHT22;12760;46.296;25.290;2023-04-24T13:58:56;22.20;73.40
24614;DHT22;12760;46.296;25.290;2023-04-24T14:01:22;22.20;72.90
24614;DHT22;12760;46.296;25.290;2023-04-24T14:03:51;21.90;72.30
24614;DHT22;12760;46.296;25.290;2023-04-24T14:06:18;21.80;71.70
24614;DHT22;12760;46.296;25.290;2023-04-24T14:08:44;21.90;72.50
24614;DHT22;12760;46.296;25.290;2023-04-24T14:11:10;21.80;72.50
24614;DHT22;12760;46.296;25.290;2023-04-24T14:13:37;21.80;72.10
24614;DHT22;12760;46.296;25.290;2023-04-24T14:16:03;21.90;72.40
24614;DHT22;12760;46.296;25.290;2023-04-24T14:18:29;22.00;73.10
24614;DHT22;12760;46.296;25.290;2023-04-24T14:20:55;22.00;72.80
24614;DHT22;12760;46.296;25.290;2023-04-24T14:23:21;22.10;72.90
24614;DHT22;12760;46.296;25.290;2023-04-24T14:25:47;22.00;72.60
24614;DHT22;12760;46.296;25.290;2023-04-24T14:28:16;22.10;72.80
24614;DHT22;12760;46.296;25.290;2023-04-24T14:30:43;22.00;73.00
24614;DHT22;12760;46.296;25.290;2023-04-24T14:33:08;21.80;72.00
24614;DHT22;12760;46.296;25.290;2023-04-24T14:35:34;21.80;73.90
24614;DHT22;12760;46.296;25.290;2023-04-24T14:38:00;21.80;74.00
24614;DHT22;12760;46.296;25.290;2023-04-24T14:40:26;21.80;74.00
24614;DHT22;12760;46.296;25.290;2023-04-24T14:42:52;21.60;73.00
24614;DHT22;12760;46.296;25.290;2023-04-24T14:45:18;21.40;77.90
24614;DHT22;12760;46.296;25.290;2023-04-24T14:47:44;21.40;77.30
24614;DHT22;12760;46.296;25.290;2023-04-24T14:50:10;21.10;78.20
24614;DHT22;12760;46.296;25.290;2023-04-24T14:52:38;21.10;77.50
24614;DHT22;12760;46.296;25.290;2023-04-24T14:55:04;20.90;77.50
24614;DHT22;12760;46.296;25.290;2023-04-24T14:57:30;20.80;77.00
24614;DHT22;12760;46.296;25.290;2023-04-24T14:59:56;20.60;77.60
24614;DHT22;12760;46.296;25.290;2023-04-24T15:02:21;20.50;77.90
24614;DHT22;12760;46.296;25.290;2023-04-24T15:04:47;20.40;77.70
24614;DHT22;12760;46.296;25.290;2023-04-24T15:07:13;20.40;78.20
24614;DHT22;12760;46.296;25.290;2023-04-24T15:09:38;20.40;78.30
24614;DHT22;12760;46.296;25.290;2023-04-24T15:12:05;20.40;78.00
24614;DHT22;12760;46.296;25.290;2023-04-24T15:14:30;20.60;78.90
24614;DHT22;12760;46.296;25.290;2023-04-24T15:16:56;20.50;79.00
24614;DHT22;12760;46.296;25.290;2023-04-24T15:19:22;20.50;79.60
24614;DHT22;12760;46.296;25.290;2023-04-24T15:21:47;20.50;79.80
24614;DHT22;12760;46.296;25.290;2023-04-24T15:24:13;20.50;79.60
24614;DHT22;12760;46.296;25.290;2023-04-24T15:26:39;20.60;80.30